createdAt,value
2019-05-11T00:02:30.948Z,0.40
2019-05-11T00:05:03.587Z,0.40
2019-05-11T00:07:38.412Z,0.50
2019-05-11T00:10:11.330Z,0.40
2019-05-11T00:12:43.994Z,0.47
2019-05-11T00:15:59.744Z,0.60
2019-05-11T00:18:31.226Z,0.50
2019-05-11T00:21:04.086Z,0.40
2019-05-11T00:23:42.469Z,0.40
2019-05-11T00:26:21.285Z,0.50
2019-05-11T00:28:54.262Z,0.40
2019-05-11T00:32:15.950Z,0.40
2019-05-11T00:35:41.551Z,0.40
2019-05-11T00:39:13.490Z,0.40
2019-05-11T00:41:42.199Z,0.40
2019-05-11T00:44:15.125Z,0.40
2019-05-11T00:46:47.957Z,0.40
2019-05-11T00:49:20.574Z,0.40
2019-05-11T00:51:53.342Z,0.50
2019-05-11T00:54:26.440Z,0.40
2019-05-11T00:56:59.939Z,0.53
2019-05-11T00:59:33.125Z,0.50
2019-05-11T01:02:05.791Z,0.40
2019-05-11T01:04:38.378Z,0.50
2019-05-11T01:07:11.062Z,0.50
2019-05-11T01:09:43.867Z,0.50
2019-05-11T01:12:16.921Z,0.40
2019-05-11T01:14:49.801Z,0.50
2019-05-11T01:17:22.668Z,0.40
2019-05-11T01:19:55.888Z,0.50
2019-05-11T01:22:28.768Z,0.50
2019-05-11T01:25:01.796Z,0.50
2019-05-11T01:27:34.750Z,0.50
2019-05-11T01:30:07.190Z,0.50
2019-05-11T01:32:39.809Z,0.40
2019-05-11T01:35:12.581Z,0.40
2019-05-11T01:37:45.390Z,0.40
2019-05-11T01:40:18.943Z,0.47
2019-05-11T01:42:51.769Z,0.50
2019-05-11T01:45:24.468Z,0.60
2019-05-11T01:47:57.109Z,0.50
2019-05-11T01:50:29.687Z,0.50
2019-05-11T01:53:02.799Z,0.40
2019-05-11T01:55:35.868Z,0.50
2019-05-11T01:58:08.957Z,0.50
2019-05-11T02:00:41.642Z,0.40
2019-05-11T02:03:13.795Z,0.50
2019-05-11T02:05:46.206Z,0.50
2019-05-11T02:08:19.481Z,0.60
2019-05-11T02:10:51.878Z,0.50
2019-05-11T02:13:25.394Z,0.60
2019-05-11T02:15:58.468Z,0.50
2019-05-11T02:18:31.121Z,0.50
2019-05-11T02:21:03.608Z,0.50
2019-05-11T02:23:36.376Z,0.50
2019-05-11T02:26:09.459Z,0.50
2019-05-11T02:28:42.530Z,0.50
2019-05-11T02:31:15.316Z,0.50
2019-05-11T02:33:48.185Z,0.50
2019-05-11T02:36:20.716Z,0.57
2019-05-11T02:38:53.485Z,0.50
2019-05-11T02:41:36.134Z,0.43
2019-05-11T02:44:00.371Z,0.50
2019-05-11T02:46:33.086Z,0.50
2019-05-11T02:49:05.945Z,0.50
2019-05-11T02:51:39.107Z,0.50
2019-05-11T02:54:12.889Z,0.43
2019-05-11T02:56:45.436Z,0.50
2019-05-11T02:59:18.195Z,0.50
2019-05-11T03:01:50.887Z,0.50
2019-05-11T03:04:23.613Z,0.50
2019-05-11T03:06:56.641Z,0.50
2019-05-11T03:09:29.594Z,0.50
2019-05-11T03:12:01.754Z,0.40
2019-05-11T03:14:34.782Z,0.50
2019-05-11T03:17:18.039Z,0.60
2019-05-11T03:19:50.491Z,0.60
2019-05-11T03:22:23.060Z,0.50
2019-05-11T03:24:55.845Z,0.60
2019-05-11T03:27:28.486Z,0.50
2019-05-11T03:30:02.229Z,0.50
2019-05-11T03:32:35.423Z,0.50
2019-05-11T03:35:09.763Z,0.53
2019-05-11T03:37:42.626Z,0.60
2019-05-11T03:40:16.028Z,0.50
2019-05-11T03:43:12.436Z,0.60
2019-05-11T03:45:45.366Z,0.50
2019-05-11T03:48:18.333Z,0.53
2019-05-11T03:50:51.334Z,0.60
2019-05-11T03:53:24.488Z,0.50
2019-05-11T03:55:56.910Z,0.60
2019-05-11T03:58:29.467Z,0.50
2019-05-11T04:01:02.080Z,0.50
2019-05-11T04:03:35.208Z,0.60
2019-05-11T04:06:07.582Z,0.50
2019-05-11T04:08:40.795Z,0.50
2019-05-11T04:11:13.745Z,0.50
2019-05-11T04:13:46.425Z,0.50
2019-05-11T04:16:19.815Z,0.60
2019-05-11T04:18:52.801Z,0.60
2019-05-11T04:21:25.134Z,0.57
2019-05-11T04:23:57.893Z,0.60
2019-05-11T04:26:30.619Z,0.50
2019-05-11T04:29:03.455Z,0.53
2019-05-11T04:31:36.839Z,0.50
2019-05-11T04:34:09.325Z,0.57
2019-05-11T04:36:41.881Z,0.50
2019-05-11T04:39:14.680Z,0.50
2019-05-11T04:41:47.264Z,0.50
2019-05-11T04:44:20.047Z,0.50
2019-05-11T04:46:52.729Z,0.60
2019-05-11T04:49:25.618Z,0.50
2019-05-11T04:51:58.499Z,0.60
2019-05-11T04:54:31.276Z,0.60
2019-05-11T04:57:03.900Z,0.50
2019-05-11T04:59:36.616Z,0.60
2019-05-11T05:02:09.290Z,0.50
2019-05-11T05:04:42.172Z,0.50
2019-05-11T05:07:16.665Z,0.70
2019-05-11T05:09:49.924Z,0.67
2019-05-11T05:12:22.437Z,0.50
2019-05-11T05:14:55.230Z,0.60
2019-05-11T05:17:28.033Z,0.50
2019-05-11T05:20:00.845Z,0.50
2019-05-11T05:22:33.705Z,0.53
2019-05-11T05:25:06.592Z,0.53
2019-05-11T05:27:40.723Z,0.50
2019-05-11T05:30:15.958Z,0.47
2019-05-11T05:32:49.019Z,0.60
2019-05-11T05:35:21.488Z,0.50
2019-05-11T05:37:54.495Z,0.53
2019-05-11T05:40:27.228Z,0.50
2019-05-11T05:43:00.260Z,0.60
2019-05-11T05:45:32.716Z,0.53
2019-05-11T05:48:06.282Z,0.60
2019-05-11T05:50:39.008Z,0.50
2019-05-11T05:53:11.937Z,0.50
2019-05-11T05:55:44.873Z,0.70
2019-05-11T05:58:17.730Z,0.53
2019-05-11T06:00:50.403Z,0.50
2019-05-11T06:03:22.888Z,0.50
2019-05-11T06:05:55.568Z,0.60
2019-05-11T06:08:27.820Z,0.60
2019-05-11T06:11:00.501Z,0.60
2019-05-11T06:13:44.776Z,0.50
2019-05-11T06:16:07.507Z,0.60
2019-05-11T06:18:40.725Z,0.53
2019-05-11T06:21:14.177Z,0.60
2019-05-11T06:23:47.463Z,0.60
2019-05-11T06:26:20.284Z,0.60
2019-05-11T06:28:53.128Z,0.60
2019-05-11T06:31:25.500Z,0.60
2019-05-11T06:33:58.080Z,0.60
2019-05-11T06:36:30.964Z,0.60
2019-05-11T06:39:05.597Z,0.53
2019-05-11T06:41:38.101Z,0.60
2019-05-11T06:44:10.910Z,0.60
2019-05-11T06:46:43.586Z,0.60
2019-05-11T06:49:16.615Z,0.70
2019-05-11T06:51:49.068Z,0.60
2019-05-11T06:54:21.366Z,0.60
2019-05-11T06:56:54.195Z,0.60
2019-05-11T06:59:27.139Z,0.50
2019-05-11T07:02:00.192Z,0.60
2019-05-11T07:04:33.103Z,0.50
2019-05-11T07:07:06.005Z,0.60
2019-05-11T07:09:38.769Z,0.60
2019-05-11T07:12:11.902Z,0.60
2019-05-11T07:14:45.160Z,0.60
2019-05-11T07:17:18.245Z,0.60
2019-05-11T07:19:51.148Z,0.50
2019-05-11T07:22:23.852Z,0.60
2019-05-11T07:24:56.468Z,0.57
2019-05-11T07:27:29.641Z,0.50
2019-05-11T07:30:02.471Z,0.60
2019-05-11T07:32:35.345Z,0.50
2019-05-11T07:35:08.753Z,0.60
2019-05-11T07:37:41.673Z,0.60
2019-05-11T07:40:14.611Z,0.50
2019-05-11T07:42:48.511Z,0.60
2019-05-11T07:45:21.921Z,0.60
2019-05-11T07:47:54.863Z,0.50
2019-05-11T07:50:28.510Z,0.60
2019-05-11T07:53:01.040Z,0.60
2019-05-11T07:55:33.651Z,0.63
2019-05-11T07:58:08.022Z,0.60
2019-05-11T08:00:40.354Z,0.60
2019-05-11T08:03:13.424Z,0.60
2019-05-11T08:05:47.704Z,0.50
2019-05-11T08:08:20.300Z,0.53
2019-05-11T08:10:53.382Z,0.60
2019-05-11T08:13:28.056Z,0.60
2019-05-11T08:16:00.422Z,0.50
2019-05-11T08:18:33.075Z,0.60
2019-05-11T08:21:08.567Z,0.60
2019-05-11T08:23:40.516Z,0.60
2019-05-11T08:26:13.191Z,0.60
2019-05-11T08:28:45.840Z,0.60
2019-05-11T08:31:18.883Z,0.40
2019-05-11T08:33:51.896Z,0.70
2019-05-11T08:36:25.205Z,0.60
2019-05-11T08:38:58.555Z,0.70
2019-05-11T08:41:31.319Z,0.60
2019-05-11T08:44:04.407Z,0.60
2019-05-11T08:46:38.599Z,0.60
2019-05-11T08:49:15.515Z,0.60
2019-05-11T08:51:47.778Z,0.60
2019-05-11T08:54:20.500Z,0.60
2019-05-11T08:56:58.536Z,0.63
2019-05-11T08:59:30.491Z,0.60
2019-05-11T09:02:03.203Z,0.60
2019-05-11T09:04:39.395Z,0.60
2019-05-11T09:07:10.675Z,0.60
2019-05-11T09:09:43.702Z,0.60
2019-05-11T09:12:18.353Z,0.60
2019-05-11T09:14:50.679Z,0.50
2019-05-11T09:17:23.559Z,0.60
2019-05-11T09:19:58.140Z,0.60
2019-05-11T09:22:30.783Z,0.60
2019-05-11T09:25:03.767Z,0.60
2019-05-11T09:27:37.618Z,0.60
2019-05-11T09:30:30.127Z,0.60
2019-05-11T09:33:02.476Z,0.70
2019-05-11T09:35:46.634Z,0.60
2019-05-11T09:38:09.899Z,0.60
2019-05-11T09:40:42.204Z,0.70
2019-05-11T09:43:15.160Z,0.60
2019-05-11T09:45:49.332Z,0.60
2019-05-11T09:48:22.466Z,0.60
2019-05-11T09:50:55.146Z,0.60
2019-05-11T09:53:28.411Z,0.60
2019-05-11T09:56:01.367Z,0.60
2019-05-11T09:58:34.595Z,0.63
2019-05-11T10:01:08.862Z,0.60
2019-05-11T10:03:42.128Z,0.63
2019-05-11T10:06:15.019Z,0.60
2019-05-11T10:08:48.665Z,0.50
2019-05-11T10:11:21.587Z,0.63
2019-05-11T10:13:54.380Z,0.60
2019-05-11T10:16:28.105Z,0.63
2019-05-11T10:19:01.460Z,0.50
2019-05-11T10:21:35.096Z,0.50
2019-05-11T10:24:08.540Z,0.60
2019-05-11T10:26:41.423Z,0.50
2019-05-11T10:29:13.872Z,0.60
2019-05-11T10:31:48.077Z,0.60
2019-05-11T10:34:20.741Z,0.60
2019-05-11T10:36:53.227Z,0.60
2019-05-11T10:39:27.715Z,0.60
2019-05-11T10:42:00.140Z,0.60
2019-05-11T10:44:32.905Z,0.70
2019-05-11T10:47:05.579Z,0.60
2019-05-11T10:49:38.618Z,0.50
2019-05-11T10:52:11.440Z,0.60
2019-05-11T10:54:44.365Z,0.60
2019-05-11T10:57:18.893Z,0.60
2019-05-11T10:59:51.612Z,0.60
2019-05-11T11:02:24.413Z,0.60
2019-05-11T11:04:58.709Z,0.60
2019-05-11T11:07:31.015Z,0.70
2019-05-11T11:10:03.891Z,0.60
2019-05-11T11:12:38.474Z,0.60
2019-05-11T11:15:11.310Z,0.60
2019-05-11T11:17:44.192Z,0.50
2019-05-11T11:20:18.677Z,0.60
2019-05-11T11:22:51.099Z,0.60
2019-05-11T11:25:23.968Z,0.60
2019-05-11T11:27:57.862Z,0.70
2019-05-11T11:30:31.041Z,0.60
2019-05-11T11:33:03.859Z,0.60
2019-05-11T11:35:38.503Z,0.60
2019-05-11T11:38:10.941Z,0.60
2019-05-11T11:40:43.843Z,0.60
2019-05-11T11:43:18.051Z,0.50
2019-05-11T11:45:50.821Z,0.53
2019-05-11T11:48:23.041Z,0.60
2019-05-11T11:50:55.543Z,0.60
2019-05-11T11:53:28.794Z,0.50
2019-05-11T11:56:02.051Z,0.60
2019-05-11T11:58:34.918Z,0.50
2019-05-11T12:01:08.779Z,0.60
2019-05-11T12:03:41.935Z,0.53
2019-05-11T12:06:14.610Z,0.60
2019-05-11T12:08:49.770Z,0.60
2019-05-11T12:11:21.447Z,0.50
2019-05-11T12:13:54.495Z,0.50
2019-05-11T12:16:28.167Z,0.50
2019-05-11T12:19:01.289Z,0.60
2019-05-11T12:21:34.584Z,0.57
2019-05-11T12:24:08.137Z,0.50
2019-05-11T12:26:41.470Z,0.50
2019-05-11T12:29:14.272Z,0.50
2019-05-11T12:31:48.542Z,0.57
2019-05-11T12:34:21.079Z,0.53
2019-05-11T12:36:53.944Z,0.57
2019-05-11T12:39:28.242Z,0.50
2019-05-11T12:42:00.835Z,0.60
2019-05-11T12:44:34.821Z,0.60
2019-05-11T12:47:19.136Z,0.60
2019-05-11T12:49:41.884Z,0.60
2019-05-11T12:52:14.468Z,0.50
2019-05-11T12:54:47.899Z,0.50
2019-05-11T12:57:20.711Z,0.57
2019-05-11T12:59:53.378Z,0.50
2019-05-11T13:02:27.966Z,0.50
2019-05-11T13:05:00.293Z,0.50
2019-05-11T13:07:33.229Z,0.43
2019-05-11T13:10:08.291Z,0.50
2019-05-11T13:12:41.342Z,0.50
2019-05-11T13:15:14.379Z,0.50
2019-05-11T13:17:48.976Z,0.50
2019-05-11T13:20:21.367Z,0.50
2019-05-11T13:22:54.327Z,0.50
2019-05-11T13:25:28.256Z,0.50
2019-05-11T13:28:00.862Z,0.60
2019-05-11T13:30:33.688Z,0.50
2019-05-11T13:33:08.515Z,0.50
2019-05-11T13:35:41.350Z,0.60
2019-05-11T13:38:20.992Z,0.50
2019-05-11T13:40:54.467Z,0.50
2019-05-11T13:43:29.866Z,0.50
2019-05-11T13:46:02.512Z,0.50
2019-05-11T13:48:42.120Z,0.50
2019-05-11T13:51:14.624Z,0.50
2019-05-11T13:53:48.151Z,0.50
2019-05-11T13:56:21.100Z,0.50
2019-05-11T13:58:54.107Z,0.50
2019-05-11T14:01:27.860Z,0.47
2019-05-11T14:04:10.828Z,0.50
2019-05-11T14:06:43.406Z,0.60
2019-05-11T14:09:25.458Z,0.50
2019-05-11T14:11:58.344Z,0.50
2019-05-11T14:14:31.993Z,0.50
2019-05-11T14:17:05.164Z,0.50
2019-05-11T14:19:38.680Z,0.60
2019-05-11T14:22:14.850Z,0.60
2019-05-11T14:24:48.352Z,0.50
2019-05-11T14:27:21.839Z,0.50
2019-05-11T14:29:54.753Z,0.60
2019-05-11T14:32:30.786Z,0.60
2019-05-11T14:35:03.439Z,0.50
2019-05-11T14:37:43.315Z,0.60
2019-05-11T14:40:19.756Z,0.53
2019-05-11T14:42:57.881Z,0.60
2019-05-11T14:45:30.976Z,0.50
2019-05-11T14:48:22.557Z,0.40
2019-05-11T14:50:40.827Z,0.40
2019-05-11T14:53:18.501Z,0.60
2019-05-11T14:55:51.736Z,0.50
2019-05-11T14:58:24.705Z,0.40
2019-05-11T15:00:58.319Z,0.50
2019-05-11T15:03:38.037Z,0.50
2019-05-11T15:06:11.436Z,0.40
2019-05-11T15:08:47.953Z,0.50
2019-05-11T15:11:20.579Z,0.40
2019-05-11T15:13:57.551Z,0.50
2019-05-11T15:16:31.914Z,0.50
2019-05-11T15:19:08.104Z,0.43
2019-05-11T15:21:41.136Z,0.50
2019-05-11T15:24:13.784Z,0.40
2019-05-11T15:26:48.429Z,0.50
2019-05-11T15:29:24.279Z,0.40
2019-05-11T15:32:01.201Z,0.50
2019-05-11T15:34:34.518Z,0.40
2019-05-11T15:37:11.240Z,0.50
2019-05-11T15:39:48.391Z,0.50
2019-05-11T15:42:21.565Z,0.50
2019-05-11T15:45:02.728Z,0.40
2019-05-11T15:47:37.591Z,0.50
2019-05-11T15:50:15.728Z,0.50
2019-05-11T15:52:49.932Z,0.50
2019-05-11T15:55:22.916Z,0.40
2019-05-11T15:57:58.679Z,0.50
2019-05-11T16:00:31.579Z,0.40
2019-05-11T16:03:04.521Z,0.40
2019-05-11T16:05:37.371Z,0.40
2019-05-11T16:08:10.048Z,0.40
2019-05-11T16:10:42.614Z,0.40
2019-05-11T16:13:17.894Z,0.50
2019-05-11T16:15:59.215Z,0.40
2019-05-11T16:18:40.290Z,0.50
2019-05-11T16:21:28.464Z,0.50
2019-05-11T16:24:13.401Z,0.40
2019-05-11T16:26:47.486Z,0.40
2019-05-11T16:29:30.064Z,0.40
2019-05-11T16:32:08.367Z,0.40
2019-05-11T16:34:41.732Z,0.40
2019-05-11T16:37:14.684Z,0.40
2019-05-11T16:39:49.703Z,0.40
2019-05-11T16:42:35.015Z,0.40
2019-05-11T16:45:12.604Z,0.50
2019-05-11T16:47:58.687Z,0.50
2019-05-11T16:50:31.193Z,0.40
2019-05-11T16:53:18.194Z,0.40
2019-05-11T16:56:04.788Z,0.50
2019-05-11T16:58:40.978Z,0.40
2019-05-11T17:01:12.633Z,0.40
2019-05-11T17:03:50.573Z,0.40
2019-05-11T17:06:23.362Z,0.40
2019-05-11T17:09:04.807Z,0.40
2019-05-11T17:11:33.434Z,0.40
2019-05-11T17:14:08.080Z,0.47
2019-05-11T17:16:40.837Z,0.40
2019-05-11T17:19:13.497Z,0.40
2019-05-11T17:21:48.306Z,0.40
2019-05-11T17:24:21.156Z,0.40
2019-05-11T17:26:53.756Z,0.40
2019-05-11T17:29:34.154Z,0.40
2019-05-11T17:32:18.481Z,0.47
2019-05-11T17:34:52.895Z,0.40
2019-05-11T17:37:30.752Z,0.40
2019-05-11T17:40:09.069Z,0.40
2019-05-11T17:42:53.496Z,0.30
2019-05-11T17:45:27.809Z,0.50
2019-05-11T17:48:08.453Z,0.40
2019-05-11T17:50:41.231Z,0.40
2019-05-11T17:53:14.111Z,0.50
2019-05-11T17:55:57.832Z,0.40
2019-05-11T17:58:29.779Z,0.50
2019-05-11T18:01:02.437Z,0.37
2019-05-11T18:03:38.603Z,0.40
2019-05-11T18:06:14.110Z,0.30
2019-05-11T18:08:47.872Z,0.40
2019-05-11T18:11:22.519Z,0.30
2019-05-11T18:13:55.568Z,0.30
2019-05-11T18:16:28.116Z,0.30
2019-05-11T18:19:08.439Z,0.40
2019-05-11T18:21:40.177Z,0.40
2019-05-11T18:24:13.144Z,0.33
2019-05-11T18:26:48.615Z,0.40
2019-05-11T18:29:25.023Z,0.40
2019-05-11T18:32:03.066Z,0.40
2019-05-11T18:34:37.702Z,0.40
2019-05-11T18:37:10.933Z,0.40
2019-05-11T18:39:43.436Z,0.40
2019-05-11T18:42:18.387Z,0.40
2019-05-11T18:44:50.984Z,0.40
2019-05-11T18:47:38.201Z,0.30
2019-05-11T18:50:10.275Z,0.40
2019-05-11T18:52:49.168Z,0.30
2019-05-11T18:55:23.495Z,0.40
2019-05-11T18:57:58.055Z,0.40
2019-05-11T19:00:30.887Z,0.33
2019-05-11T19:03:03.759Z,0.40
2019-05-11T19:05:40.256Z,0.40
2019-05-11T19:08:14.208Z,0.40
2019-05-11T19:10:48.737Z,0.30
2019-05-11T19:13:22.051Z,0.20
2019-05-11T19:16:02.012Z,0.30
2019-05-11T19:18:38.571Z,0.40
2019-05-11T19:21:10.904Z,0.30
2019-05-11T19:23:43.459Z,0.40
2019-05-11T19:26:17.813Z,0.33
2019-05-11T19:28:50.961Z,0.40
2019-05-11T19:31:24.124Z,0.30
2019-05-11T19:34:00.155Z,0.40
2019-05-11T19:36:48.527Z,0.30
2019-05-11T19:39:23.746Z,0.30
2019-05-11T19:41:58.080Z,0.30
2019-05-11T19:44:30.904Z,0.30
2019-05-11T19:47:08.873Z,0.40
2019-05-11T19:49:44.299Z,0.30
2019-05-11T19:52:17.761Z,0.40
2019-05-11T19:54:51.252Z,0.30
2019-05-11T19:57:24.035Z,0.30
2019-05-11T19:59:58.373Z,0.40
2019-05-11T20:02:31.299Z,0.40
2019-05-11T20:05:03.952Z,0.47
2019-05-11T20:07:40.336Z,0.30
2019-05-11T20:10:13.757Z,0.30
2019-05-11T20:12:49.044Z,0.40
2019-05-11T20:15:21.584Z,0.40
2019-05-11T20:17:54.295Z,0.40
2019-05-11T20:20:28.402Z,0.30
2019-05-11T20:23:01.226Z,0.37
2019-05-11T20:25:34.436Z,0.40
2019-05-11T20:28:07.112Z,0.30
2019-05-11T20:30:39.932Z,0.37
2019-05-11T20:33:13.329Z,0.40
2019-05-11T20:35:45.895Z,0.33
2019-05-11T20:38:19.003Z,0.33
2019-05-11T20:40:52.897Z,0.30
2019-05-11T20:43:27.701Z,0.30
2019-05-11T20:45:59.649Z,0.40
2019-05-11T20:48:32.684Z,0.40
2019-05-11T20:51:05.137Z,0.37
2019-05-11T20:53:42.021Z,0.40
2019-05-11T20:56:15.243Z,0.40
2019-05-11T20:58:59.332Z,0.37
2019-05-11T21:01:32.059Z,0.30
2019-05-11T21:04:05.318Z,0.40
2019-05-11T21:06:38.712Z,0.30
2019-05-11T21:09:11.942Z,0.30
2019-05-11T21:11:44.544Z,0.40
2019-05-11T21:14:18.199Z,0.40
2019-05-11T21:16:51.372Z,0.30
2019-05-11T21:19:24.044Z,0.40
2019-05-11T21:21:59.052Z,0.40
2019-05-11T21:24:31.480Z,0.40
2019-05-11T21:27:04.286Z,0.40
2019-05-11T21:29:38.762Z,0.40
2019-05-11T21:32:14.984Z,0.30
2019-05-11T21:34:48.894Z,0.40
2019-05-11T21:37:27.673Z,0.40
2019-05-11T21:40:00.212Z,0.40
2019-05-11T21:42:32.864Z,0.30
2019-05-11T21:45:05.819Z,0.40
2019-05-11T21:47:39.112Z,0.40
2019-05-11T21:50:19.272Z,0.30
2019-05-11T21:52:54.226Z,0.30
2019-05-11T21:55:29.163Z,0.40
2019-05-11T21:58:09.059Z,0.37
2019-05-11T22:00:43.325Z,0.40
2019-05-11T22:03:15.815Z,0.40
2019-05-11T22:05:48.721Z,0.40
2019-05-11T22:08:24.460Z,0.40
2019-05-11T22:10:59.724Z,0.40
2019-05-11T22:13:37.753Z,0.30
2019-05-11T22:16:10.254Z,0.40
2019-05-11T22:18:43.416Z,0.43
2019-05-11T22:21:18.607Z,0.40
2019-05-11T22:23:50.782Z,0.40
2019-05-11T22:26:24.229Z,0.37
2019-05-11T22:28:56.830Z,0.50
2019-05-11T22:31:29.697Z,0.30
2019-05-11T22:34:05.617Z,0.40
2019-05-11T22:36:41.399Z,0.40
2019-05-11T22:39:17.985Z,0.40
2019-05-11T22:41:49.371Z,0.40
2019-05-11T22:44:21.901Z,0.40
2019-05-11T22:46:55.160Z,0.40
2019-05-11T22:49:28.504Z,0.40
2019-05-11T22:52:02.101Z,0.40
2019-05-11T22:54:38.181Z,0.43
2019-05-11T22:57:10.053Z,0.43
2019-05-11T22:59:43.223Z,0.40
2019-05-11T23:02:16.326Z,0.40
2019-05-11T23:04:49.085Z,0.43
2019-05-11T23:07:21.800Z,0.40
2019-05-11T23:09:54.763Z,0.40
2019-05-11T23:12:28.601Z,0.40
2019-05-11T23:15:17.827Z,0.40
2019-05-11T23:17:50.983Z,0.50
2019-05-11T23:20:23.868Z,0.47
2019-05-11T23:23:00.614Z,0.40
2019-05-11T23:25:30.454Z,0.40
2019-05-11T23:28:03.268Z,0.40
2019-05-11T23:30:38.644Z,0.40
2019-05-11T23:33:10.493Z,0.40
2019-05-11T23:35:43.240Z,0.50
2019-05-11T23:38:17.664Z,0.40
2019-05-11T23:40:50.315Z,0.40
2019-05-11T23:43:23.619Z,0.40
2019-05-11T23:45:57.656Z,0.40
2019-05-11T23:48:30.035Z,0.50
2019-05-11T23:51:02.444Z,0.47
2019-05-11T23:53:38.596Z,0.50
2019-05-11T23:56:10.230Z,0.47
2019-05-11T23:58:42.905Z,0.40
